Time;durP1;ratioP1;P1;durP2;ratioP2;P2;SDS_P1;SDS_P2;PMS_P1;PMS_P2;Temp;Humidity;BMP_temperature;BMP_pressure;BME280_temperature;BME280_humidity;BME280_pressure;Samples;Min_cycle;Max_cycle;Signal;HPM_P1;HPM_P2
2023/10/02 00:05:05;;;;;;;4.15;1.48;;;15.80;68.80;;;;;;5034787;28;19976;-72
2023/10/02 00:07:33;;;;;;;2.90;1.45;;;15.80;68.70;;;;;;5033268;28;20029;-72
2023/10/02 00:10:01;;;;;;;3.03;1.27;;;15.70;69.00;;;;;;5033197;28;20167;-72
2023/10/02 00:12:31;;;;;;;1.60;0.85;;;15.80;69.20;;;;;;5032619;28;20037;-72
2023/10/02 00:15:12;;;;;;;1.95;1.20;;;15.70;69.40;;;;;;5035038;28;20363;-71
2023/10/02 00:17:43;;;;;;;2.33;1.55;;;15.70;69.50;;;;;;5033492;28;20067;-72
2023/10/02 00:20:22;;;;;;;0.75;0.55;;;15.70;69.50;;;;;;5032098;28;20049;-72
2023/10/02 00:22:50;;;;;;;1.58;1.48;;;15.70;69.80;;;;;;5033416;28;20036;-72
2023/10/02 00:25:19;;;;;;;1.15;0.85;;;15.70;69.60;;;;;;5032660;28;20467;-72
2023/10/02 00:27:51;;;;;;;3.22;1.95;;;15.60;69.60;;;;;;5033239;28;20060;-72
2023/10/02 00:33:11;;;;;;;0.73;0.47;;;15.60;69.80;;;;;;5034491;28;20707;-72
2023/10/02 00:35:50;;;;;;;1.50;0.88;;;15.60;69.90;;;;;;5033714;28;20040;-72
2023/10/02 00:38:16;;;;;;;3.90;0.77;;;15.60;69.70;;;;;;5033143;28;20041;-71
2023/10/02 00:40:42;;;;;;;0.75;0.60;;;15.50;69.70;;;;;;5032966;28;20049;-72
2023/10/02 00:45:58;;;;;;;1.88;1.38;;;15.40;69.60;;;;;;5033327;28;20120;-72
2023/10/02 00:48:25;;;;;;;7.13;0.90;;;15.30;69.60;;;;;;5016990;28;20033;-72
2023/10/02 00:50:58;;;;;;;;;;;15.30;69.50;;;;;;5015652;28;20064;-72
2023/10/02 00:53:38;;;;;;;1.27;0.70;;;15.10;69.30;;;;;;5033947;28;20020;-72
2023/10/02 00:59:15;;;;;;;1.88;1.10;;;15.10;69.40;;;;;;5034016;28;20045;-71
2023/10/02 01:01:41;;;;;;;2.08;1.20;;;15.00;69.50;;;;;;5031829;28;20628;-72
2023/10/02 01:04:11;;;;;;;1.73;0.93;;;14.90;69.80;;;;;;5032320;28;20041;-72
2023/10/02 01:07:05;;;;;;;2.92;1.65;;;14.90;69.90;;;;;;5032991;28;20029;-72
2023/10/02 01:09:34;;;;;;;1.17;0.82;;;14.90;69.60;;;;;;5033753;28;20099;-72
2023/10/02 01:12:00;;;;;;;1.42;0.70;;;14.80;69.40;;;;;;5031304;28;20092;-72
2023/10/02 01:14:50;;;;;;;4.47;1.40;;;14.80;69.60;;;;;;5032252;28;20091;-72
2023/10/02 01:17:20;;;;;;;1.90;0.98;;;14.80;69.30;;;;;;5031986;28;20125;-72
2023/10/02 01:22:55;;;;;;;1.70;1.10;;;14.80;69.30;;;;;;5032813;28;20140;-72
2023/10/02 01:28:09;;;;;;;3.50;0.77;;;14.80;69.60;;;;;;5033228;28;20099;-72
2023/10/02 01:30:37;;;;;;;0.77;0.52;;;14.80;70.00;;;;;;5031654;28;20483;-72
2023/10/02 01:33:22;;;;;;;0.98;0.70;;;14.80;70.00;;;;;;5032043;28;20060;-72
2023/10/02 01:36:08;;;;;;;1.48;0.77;;;14.80;69.60;;;;;;5045787;28;20426;-72
2023/10/02 01:38:37;;;;;;;1.60;0.80;;;14.90;70.40;;;;;;5031678;28;20034;-72
2023/10/02 01:41:06;;;;;;;2.03;0.73;;;14.90;69.90;;;;;;5030906;28;20087;-71
2023/10/02 01:43:50;;;;;;;2.30;0.88;;;14.90;70.40;;;;;;5031488;28;20095;-72
2023/10/02 01:49:01;;;;;;;4.30;1.50;;;15.00;70.50;;;;;;5033153;28;20048;-72
2023/10/02 01:51:27;;;;;;;0.73;0.65;;;15.00;70.60;;;;;;5031604;28;20403;-71
2023/10/02 01:54:15;;;;;;;0.90;0.75;;;15.00;70.70;;;;;;5032973;28;20038;-72
2023/10/02 01:56:47;;;;;;;2.05;0.68;;;15.00;70.80;;;;;;5031129;28;20068;-72
2023/10/02 18:22:11;;;;;;;1.80;0.93;;;20.70;54.70;;;;;;5011192;28;20104;-72
2023/10/02 18:24:38;;;;;;;2.20;1.00;;;20.60;55.10;;;;;;5030556;28;20044;-73
2023/10/02 18:27:04;;;;;;;2.42;1.98;;;20.40;54.60;;;;;;5013866;28;20088;-73
2023/10/02 18:29:31;;;;;;;;;;;20.40;55.40;;;;;;5033865;28;20037;-73
2023/10/02 18:31:58;;;;;;;1.45;0.95;;;20.40;55.50;;;;;;5067243;28;19924;-73
2023/10/02 18:34:24;;;;;;;1.42;0.70;;;20.30;55.70;;;;;;5053780;28;20100;-72
2023/10/02 18:36:52;;;;;;;1.50;1.00;;;20.20;55.90;;;;;;5054284;28;20108;-73
2023/10/02 18:39:22;;;;;;;2.53;1.45;;;20.10;55.90;;;;;;5054900;28;20374;-73
2023/10/02 18:41:50;;;;;;;1.33;1.08;;;20.00;56.00;;;;;;5071356;28;20504;-73
2023/10/02 18:44:16;;;;;;;1.85;1.10;;;20.00;56.30;;;;;;5072164;28;20486;-73
2023/10/02 18:46:42;;;;;;;1.65;1.17;;;19.90;56.50;;;;;;5053105;28;20043;-73
2023/10/02 18:51:52;;;;;;;1.30;1.13;;;19.80;55.70;;;;;;5036858;28;20078;-73
2023/10/02 18:54:18;;;;;;;;;;;19.80;56.40;;;;;;5033934;28;20040;-72
2023/10/02 18:56:44;;;;;;;1.58;1.00;;;19.70;56.80;;;;;;5032487;28;19913;-73
2023/10/02 18:59:11;;;;;;;3.40;2.55;;;19.70;56.90;;;;;;5052680;28;20065;-72
2023/10/02 19:01:38;;;;;;;;;;;19.60;57.20;;;;;;5051572;28;20029;-72
2023/10/02 19:04:05;;;;;;;2.28;1.58;;;19.50;57.50;;;;;;5052389;28;19920;-73
2023/10/02 19:06:32;;;;;;;0.90;0.90;;;19.40;57.50;;;;;;5050043;28;20083;-72
2023/10/02 19:08:58;;;;;;;3.63;1.75;;;19.40;57.50;;;;;;5072489;28;20037;-73
2023/10/02 19:11:30;;;;;;;1.60;0.95;;;19.30;57.60;;;;;;5035612;28;20378;-73
2023/10/02 19:13:56;;;;;;;4.30;2.40;;;19.30;57.50;;;;;;5034165;28;20455;-72
2023/10/02 19:16:22;;;;;;;1.98;1.60;;;19.30;57.70;;;;;;5050491;28;20025;-73
2023/10/02 19:19:07;;;;;;;;;;;19.20;57.90;;;;;;5043757;28;20079;-72
2023/10/02 19:21:33;;;;;;;2.63;1.17;;;19.10;57.90;;;;;;5036404;28;20430;-72
2023/10/02 19:24:00;;;;;;;;;;;19.10;58.30;;;;;;5072136;28;20107;-72
2023/10/02 19:26:33;;;;;;;0.15;0.13;;;19.00;58.00;;;;;;5072627;28;19919;-73
2023/10/02 19:29:01;;;;;;;2.95;1.63;;;19.00;58.10;;;;;;5062705;28;20078;-73
2023/10/02 19:31:27;;;;;;;1.38;0.85;;;18.90;58.40;;;;;;5036904;28;20494;-73
2023/10/02 19:33:53;;;;;;;2.13;1.10;;;18.80;57.80;;;;;;5037641;28;20033;-72
2023/10/02 19:36:19;;;;;;;;;;;18.80;58.50;;;;;;5037353;28;20498;-73
2023/10/02 19:38:45;;;;;;;3.53;1.25;;;18.80;58.10;;;;;;5065336;28;20011;-72
2023/10/02 19:41:31;;;;;;;1.25;0.70;;;18.70;58.30;;;;;;5074858;28;20025;-73
2023/10/02 19:43:57;;;;;;;0.57;0.50;;;18.70;58.50;;;;;;5035975;28;20033;-72
2023/10/02 19:46:23;;;;;;;2.42;1.60;;;18.60;58.30;;;;;;5039809;28;20037;-72
2023/10/02 19:48:50;;;;;;;;;;;18.60;59.10;;;;;;5035152;28;20029;-73
2023/10/02 19:51:18;;;;;;;0.90;0.47;;;18.50;58.90;;;;;;5016906;28;20374;-72
2023/10/02 19:53:44;;;;;;;2.17;1.20;;;18.50;59.10;;;;;;5017592;28;20083;-72
2023/10/02 19:56:13;;;;;;;;;;;18.40;59.20;;;;;;5017861;28;20067;-73
2023/10/02 19:58:39;;;;;;;2.55;1.17;;;18.30;59.30;;;;;;5026139;28;20003;-73
2023/10/02 20:01:05;;;;;;;2.25;1.17;;;18.20;59.10;;;;;;5048473;28;20044;-72
2023/10/02 20:03:31;;;;;;;;;;;18.30;60.00;;;;;;5037533;28;20049;-73
2023/10/02 20:08:42;;;;;;;3.72;1.42;;;18.10;60.40;;;;;;5055683;28;20047;-72
2023/10/02 20:11:08;;;;;;;1.80;0.98;;;18.00;60.00;;;;;;5054232;28;20456;-73
2023/10/02 20:13:35;;;;;;;;;;;18.10;61.00;;;;;;5037650;28;20094;-73
2023/10/02 20:16:02;;;;;;;4.03;1.98;;;18.00;60.60;;;;;;5054475;28;20354;-72
2023/10/02 20:18:29;;;;;;;3.22;1.65;;;17.90;60.80;;;;;;5055313;28;20363;-72
2023/10/02 20:20:57;;;;;;;4.55;2.25;;;17.90;61.40;;;;;;5036184;28;20120;-73
2023/10/02 20:23:24;;;;;;;2.65;1.48;;;17.90;60.70;;;;;;5036366;28;20041;-73
2023/10/02 20:25:50;;;;;;;0.75;0.57;;;17.90;61.20;;;;;;5043143;28;20527;-73
2023/10/02 20:28:18;;;;;;;2.40;1.13;;;17.80;61.30;;;;;;5075032;28;20033;-73
2023/10/02 20:30:44;;;;;;;0.75;0.60;;;17.80;61.50;;;;;;5068280;28;20065;-72
2023/10/02 20:33:11;;;;;;;2.30;1.30;;;17.70;61.10;;;;;;5039562;28;20033;-73
2023/10/02 20:35:41;;;;;;;3.72;1.17;;;17.70;60.70;;;;;;5049205;28;20055;-73
2023/10/02 20:38:12;;;;;;;1.55;1.08;;;17.60;60.70;;;;;;5024903;28;20551;-72
2023/10/02 20:40:41;;;;;;;1.00;0.90;;;17.60;60.70;;;;;;5016959;28;20030;-73
2023/10/02 20:43:08;;;;;;;3.33;1.77;;;17.40;60.70;;;;;;5017421;28;20071;-73
2023/10/02 20:45:35;;;;;;;;;;;17.40;61.70;;;;;;5000564;28;20034;-73
2023/10/02 20:48:04;;;;;;;3.20;2.30;;;17.40;61.40;;;;;;5000654;28;19921;-73
2023/10/02 20:50:32;;;;;;;1.00;0.73;;;17.30;61.40;;;;;;5019502;28;20465;-73
2023/10/02 20:52:59;;;;;;;1.13;0.82;;;17.20;61.70;;;;;;5020317;28;20060;-73
2023/10/02 20:55:26;;;;;;;7.35;2.28;;;17.20;61.30;;;;;;5036108;28;20082;-72
2023/10/02 20:57:54;;;;;;;1.63;0.90;;;17.20;61.80;;;;;;5053269;28;20025;-73
2023/10/02 21:00:21;;;;;;;3.85;2.13;;;17.10;61.80;;;;;;5035546;28;20037;-73
2023/10/02 21:02:49;;;;;;;0.82;0.63;;;17.10;62.10;;;;;;5053754;28;20075;-73
2023/10/02 21:05:16;;;;;;;3.45;1.15;;;17.00;62.20;;;;;;5053594;28;20151;-73
2023/10/02 21:07:42;;;;;;;1.55;1.08;;;17.00;62.10;;;;;;5054133;28;20029;-73
2023/10/02 21:10:10;;;;;;;1.70;0.65;;;17.00;62.10;;;;;;5018377;28;20037;-73
2023/10/02 21:12:39;;;;;;;9.05;2.10;;;16.80;62.00;;;;;;5036055;28;20486;-73
2023/10/02 21:15:25;;;;;;;1.30;0.93;;;16.80;62.60;;;;;;5053549;28;20132;-73
2023/10/02 21:17:52;;;;;;;1.23;0.80;;;16.80;62.70;;;;;;5054043;28;20040;-73
2023/10/02 21:20:18;;;;;;;0.93;0.88;;;16.70;62.90;;;;;;5052943;28;20538;-73
2023/10/02 21:25:28;;;;;;;0.73;0.47;;;16.60;62.60;;;;;;5033091;28;19955;-73
2023/10/02 21:27:54;;;;;;;2.80;1.15;;;16.60;62.70;;;;;;5033680;28;20038;-73
2023/10/02 21:30:21;;;;;;;2.67;1.58;;;16.50;62.90;;;;;;5031707;28;20041;-73
2023/10/02 21:32:46;;;;;;;;;;;16.50;63.10;;;;;;5033019;28;20498;-73
2023/10/02 21:35:12;;;;;;;2.25;1.17;;;16.40;62.70;;;;;;5033106;28;20266;-73
2023/10/02 21:37:39;;;;;;;2.53;0.43;;;16.30;62.90;;;;;;5033377;28;20017;-73
2023/10/02 21:40:06;;;;;;;;;;;16.20;62.20;;;;;;5015751;28;20041;-73
2023/10/02 21:42:33;;;;;;;5.72;2.35;;;16.20;62.50;;;;;;5033148;28;19909;-73
2023/10/02 21:45:00;;;;;;;2.33;1.35;;;16.10;62.40;;;;;;5015880;28;20084;-72
2023/10/02 21:47:26;;;;;;;1.98;0.65;;;16.00;63.20;;;;;;5032771;28;20394;-73
2023/10/02 21:49:51;;;;;;;3.15;1.10;;;16.10;63.60;;;;;;5015495;28;20041;-72
2023/10/02 21:52:18;;;;;;;0.38;0.38;;;16.10;63.70;;;;;;5032263;28;20510;-72
2023/10/02 21:54:50;;;;;;;2.72;1.92;;;16.00;63.10;;;;;;5015629;28;20517;-72
2023/10/02 21:57:16;;;;;;;1.35;0.60;;;16.10;64.00;;;;;;5015296;28;20029;-72
2023/10/02 21:59:42;;;;;;;0.70;0.65;;;16.10;64.00;;;;;;5019041;28;20071;-72
2023/10/02 22:02:10;;;;;;;0.80;0.52;;;16.10;64.20;;;;;;5031035;28;20113;-72
2023/10/02 22:04:40;;;;;;;0.77;0.45;;;16.10;64.20;;;;;;5031658;28;20414;-72
2023/10/02 22:07:07;;;;;;;0.68;0.47;;;16.00;64.30;;;;;;5032774;28;20108;-72
2023/10/02 22:09:33;;;;;;;1.42;0.95;;;16.00;64.50;;;;;;5032245;28;20041;-72
2023/10/02 22:14:43;;;;;;;1.77;0.82;;;15.90;64.40;;;;;;5045700;28;19943;-72
2023/10/02 22:17:13;;;;;;;1.25;1.15;;;15.90;64.90;;;;;;5032542;28;20026;-72
2023/10/02 22:19:40;;;;;;;2.15;1.45;;;15.80;65.00;;;;;;5033256;28;20049;-72
2023/10/02 22:22:06;;;;;;;6.68;1.25;;;15.70;65.00;;;;;;5001945;28;20060;-72
2023/10/02 22:24:32;;;;;;;1.10;0.93;;;15.80;65.20;;;;;;5032496;28;20053;-72
2023/10/02 22:26:58;;;;;;;;;;;15.80;65.20;;;;;;5033076;28;20049;-73
2023/10/02 22:29:24;;;;;;;2.15;1.33;;;15.80;65.00;;;;;;5015104;28;20297;-72
2023/10/02 22:31:51;;;;;;;0.52;0.50;;;15.70;65.40;;;;;;5031878;28;20095;-72
2023/10/02 22:34:19;;;;;;;0.90;0.55;;;15.70;65.70;;;;;;5032058;28;20128;-72
2023/10/02 22:36:47;;;;;;;2.22;1.13;;;15.70;65.70;;;;;;5032033;28;20029;-72
2023/10/02 22:39:13;;;;;;;0.28;0.20;;;15.60;65.80;;;;;;5034776;28;20124;-72
2023/10/02 22:41:40;;;;;;;0.60;0.60;;;15.60;65.70;;;;;;5051576;28;20036;-72
2023/10/02 22:44:07;;;;;;;3.72;1.48;;;15.60;65.60;;;;;;5023861;28;20402;-72
2023/10/02 22:46:34;;;;;;;1.55;0.95;;;15.60;65.50;;;;;;5014397;28;20467;-72
2023/10/02 22:49:00;;;;;;;0.55;0.40;;;15.50;65.00;;;;;;5032576;28;20041;-72
2023/10/02 22:51:26;;;;;;;1.98;1.40;;;15.60;65.40;;;;;;5031291;28;20048;-72
2023/10/02 22:53:52;;;;;;;4.55;1.17;;;15.50;65.50;;;;;;5032163;28;20071;-72
2023/10/02 22:56:18;;;;;;;1.35;0.75;;;15.40;65.40;;;;;;5032151;28;20025;-72
2023/10/02 22:58:45;;;;;;;1.58;0.55;;;15.50;65.90;;;;;;5032249;28;20060;-72
2023/10/02 23:01:11;;;;;;;2.95;1.13;;;15.40;66.00;;;;;;5029392;28;20033;-73
2023/10/02 23:03:37;;;;;;;1.10;0.68;;;15.40;65.90;;;;;;5014657;28;20037;-72
2023/10/02 23:06:09;;;;;;;0.77;0.63;;;15.30;66.20;;;;;;5014393;28;20045;-73
2023/10/02 23:08:35;;;;;;;0.45;0.45;;;15.30;66.20;;;;;;5015566;28;20084;-73
2023/10/02 23:11:06;;;;;;;0.90;0.40;;;15.30;66.20;;;;;;5031497;28;20041;-73
2023/10/02 23:13:35;;;;;;;1.65;0.80;;;15.30;66.10;;;;;;5015216;28;20057;-73
2023/10/02 23:16:01;;;;;;;1.30;0.73;;;15.30;65.90;;;;;;5014684;28;20028;-72
2023/10/02 23:18:27;;;;;;;;;;;15.20;64.90;;;;;;5015179;28;20038;-73
2023/10/02 23:20:58;;;;;;;0.30;0.30;;;15.10;65.50;;;;;;5031214;28;20301;-73
2023/10/02 23:23:25;;;;;;;2.47;0.73;;;15.10;65.30;;;;;;5030294;28;20056;-73
2023/10/02 23:25:52;;;;;;;0.68;0.32;;;15.10;65.30;;;;;;5051588;28;20039;-72
2023/10/02 23:28:18;;;;;;;0.88;0.57;;;15.00;65.00;;;;;;5052369;28;20112;-73
2023/10/02 23:30:45;;;;;;;1.40;0.88;;;15.00;65.10;;;;;;5033445;28;20124;-73
2023/10/02 23:33:11;;;;;;;4.75;2.08;;;15.00;65.20;;;;;;5052279;28;20112;-73
2023/10/02 23:35:43;;;;;;;0.95;0.70;;;14.90;65.80;;;;;;5051411;28;20387;-73
2023/10/02 23:38:11;;;;;;;0.63;0.43;;;14.80;64.70;;;;;;5052111;28;20119;-72
2023/10/02 23:40:39;;;;;;;1.85;1.58;;;14.80;65.10;;;;;;5033526;28;20053;-72
2023/10/02 23:43:07;;;;;;;0.98;0.82;;;14.90;65.40;;;;;;5050660;28;20393;-72
2023/10/02 23:45:36;;;;;;;2.10;1.20;;;14.90;65.60;;;;;;5051163;28;20037;-72
2023/10/02 23:48:05;;;;;;;2.78;1.75;;;15.00;65.60;;;;;;5051930;28;20029;-73
2023/10/02 23:50:36;;;;;;;1.65;0.63;;;15.00;65.30;;;;;;5033455;28;20037;-72
2023/10/02 23:53:07;;;;;;;1.52;1.42;;;15.10;65.10;;;;;;5051406;28;20474;-73
2023/10/02 23:55:35;;;;;;;1.08;0.82;;;15.10;65.70;;;;;;5034139;28;20045;-72
2023/10/02 23:58:02;;;;;;;1.55;0.93;;;15.00;66.30;;;;;;5051879;28;20548;-72
